Time;durP1;ratioP1;P1;durP2;ratioP2;P2;SDS_P1;SDS_P2;PMS_P1;PMS_P2;Temp;Humidity;BMP_temperature;BMP_pressure;BME280_temperature;BME280_humidity;BME280_pressure;Samples;Min_cycle;Max_cycle;Signal;HPM_P1;HPM_P2
2022/11/12 00:02:11;;;;;;;1.52;0.40;;;;;;;10.39;100.00;102062.81;5053286;28;20037;-61
2022/11/12 00:04:37;;;;;;;3.38;0.85;;;;;;;10.38;100.00;102055.84;5062403;28;20111;-61
2022/11/12 00:07:02;;;;;;;3.97;0.80;;;;;;;10.34;100.00;102055.31;5056357;28;20109;-62
2022/11/12 00:09:27;;;;;;;5.47;1.05;;;;;;;10.30;100.00;102058.41;5060904;28;20498;-62
2022/11/12 00:11:53;;;;;;;3.78;0.70;;;;;;;10.19;100.00;102052.31;5058867;28;20500;-62
2022/11/12 00:14:18;;;;;;;4.30;1.20;;;;;;;10.18;100.00;102052.47;5054772;28;20052;-63
2022/11/12 00:16:43;;;;;;;1.10;0.68;;;;;;;10.19;100.00;102052.31;5057148;28;20043;-62
2022/11/12 00:19:09;;;;;;;2.53;0.85;;;;;;;10.17;100.00;102064.91;5056339;28;20082;-63
2022/11/12 00:21:34;;;;;;;1.48;0.73;;;;;;;10.19;100.00;102059.44;5062878;28;20120;-62
2022/11/12 00:23:59;;;;;;;1.27;0.80;;;;;;;10.20;100.00;102051.34;5053672;28;20482;-62
2022/11/12 00:26:25;;;;;;;6.05;1.70;;;;;;;10.18;100.00;102058.59;5055812;28;20103;-60
2022/11/12 00:28:50;;;;;;;2.05;0.82;;;;;;;10.11;100.00;102062.00;5059153;28;20072;-61
2022/11/12 00:31:15;;;;;;;4.38;1.13;;;;;;;10.05;100.00;102063.44;5053165;28;20052;-63
2022/11/12 00:33:42;;;;;;;1.60;0.50;;;;;;;10.01;100.00;102056.75;5055268;28;20978;-60
2022/11/12 00:36:08;;;;;;;1.25;0.45;;;;;;;9.91;100.00;102055.97;5050532;28;20025;-59
2022/11/12 00:38:34;;;;;;;2.30;0.68;;;;;;;9.79;100.00;102055.34;5057669;28;20033;-63
2022/11/12 00:40:59;;;;;;;4.18;1.10;;;;;;;9.67;100.00;102057.34;5057259;28;20552;-63
2022/11/12 00:43:25;;;;;;;1.73;0.32;;;;;;;9.58;100.00;102048.47;5056500;28;20077;-61
2022/11/12 00:45:50;;;;;;;0.75;0.75;;;;;;;9.50;100.00;102055.47;5053236;28;20054;-61
2022/11/12 00:48:15;;;;;;;2.10;0.75;;;;;;;9.46;100.00;102062.03;5056582;28;20090;-60
2022/11/12 00:50:40;;;;;;;0.45;0.40;;;;;;;9.37;100.00;102056.66;5049058;28;20035;-61
2022/11/12 00:53:06;;;;;;;2.00;0.50;;;;;;;9.28;100.00;102051.38;5054554;28;20029;-61
2022/11/12 00:55:31;;;;;;;5.50;0.65;;;;;;;9.24;100.00;102061.44;5050887;28;20483;-60
2022/11/12 00:57:58;;;;;;;3.63;0.50;;;;;;;9.27;100.00;102055.84;5040848;28;20025;-63
2022/11/12 01:00:23;;;;;;;2.95;0.98;;;;;;;9.30;100.00;102060.00;5055104;28;20063;-61
2022/11/12 01:02:49;;;;;;;2.00;0.75;;;;;;;9.35;100.00;102063.88;5049589;28;20580;-61
2022/11/12 01:05:14;;;;;;;8.18;2.17;;;;;;;9.35;100.00;102063.88;5058808;28;20017;-63
2022/11/12 01:07:40;;;;;;;1.90;1.73;;;;;;;9.34;100.00;102070.16;5051712;28;20494;-61
2022/11/12 01:10:06;;;;;;;2.45;1.38;;;;;;;9.35;100.00;102068.34;5053249;28;20067;-62
2022/11/12 01:12:32;;;;;;;5.03;0.98;;;;;;;9.32;100.00;102064.19;5056388;28;20036;-62
2022/11/12 01:14:57;;;;;;;1.60;0.25;;;;;;;9.31;100.00;102056.38;5054914;28;20024;-60
2022/11/12 01:17:23;;;;;;;2.50;1.10;;;;;;;9.28;100.00;102060.16;5054373;28;20025;-60
2022/11/12 01:19:49;;;;;;;0.75;0.43;;;;;;;9.27;100.00;102066.44;5053778;28;20032;-63
2022/11/12 01:22:14;;;;;;;1.85;0.60;;;;;;;9.26;100.00;102058.63;5048804;28;20056;-63
2022/11/12 01:24:39;;;;;;;3.08;0.32;;;;;;;9.25;100.00;102057.78;5037703;28;20633;-62
2022/11/12 01:27:05;;;;;;;3.95;1.75;;;;;;;9.28;100.00;102061.97;5054923;28;20033;-61
2022/11/12 01:29:30;;;;;;;4.72;0.70;;;;;;;9.25;100.00;102057.78;5057472;28;20270;-59
2022/11/12 01:31:55;;;;;;;3.13;1.45;;;;;;;9.20;100.00;102053.91;5049365;28;20662;-62
2022/11/12 01:34:21;;;;;;;0.80;0.55;;;;;;;9.20;100.00;102057.38;5051252;28;20047;-63
2022/11/12 01:36:46;;;;;;;0.82;0.82;;;;;;;9.20;100.00;102057.38;5060938;28;20319;-61
2022/11/12 01:39:12;;;;;;;1.92;0.32;;;;;;;9.20;100.00;102054.75;5052679;28;20342;-61
2022/11/12 01:41:39;;;;;;;0.73;0.73;;;;;;;9.22;100.00;102051.97;5056889;28;20029;-63
2022/11/12 01:44:15;;;;;;;2.75;0.52;;;;;;;9.22;100.00;102054.63;5054595;28;20025;-62
2022/11/12 01:47:22;;;;;;;6.43;1.55;;;;;;;9.21;100.00;102044.97;5054711;28;20576;-63
2022/11/12 01:50:24;;;;;;;2.03;0.47;;;;;;;9.22;100.00;102062.56;5049843;28;20040;-62
2022/11/12 01:52:57;;;;;;;1.23;0.60;;;;;;;9.20;100.00;102061.84;5047275;28;20466;-63
2022/11/12 01:55:27;;;;;;;1.45;0.60;;;;;;;9.21;100.00;102061.69;5054437;28;20067;-64
2022/11/12 01:57:58;;;;;;;1.45;1.02;;;;;;;9.23;100.00;102062.38;5050992;28;20025;-63
2022/11/12 02:00:23;;;;;;;2.00;0.75;;;;;;;9.23;100.00;102064.22;5051682;28;20406;-61
2022/11/12 02:02:54;;;;;;;2.00;1.02;;;;;;;9.26;100.00;102064.75;5050634;28;20037;-63
2022/11/12 02:05:21;;;;;;;1.80;0.90;;;;;;;9.28;100.00;102061.97;5057771;28;20035;-62
2022/11/12 02:07:48;;;;;;;4.95;1.83;;;;;;;9.29;100.00;102061.84;5048115;28;20482;-62
2022/11/12 02:10:13;;;;;;;5.55;0.98;;;;;;;9.31;100.00;102054.56;5057903;28;20033;-62
2022/11/12 02:15:25;;;;;;;3.63;1.70;;;;;;;9.49;100.00;102057.28;5057378;28;20496;-59
2022/11/12 02:17:50;;;;;;;8.38;2.75;;;;;;;9.60;100.00;102050.97;5060295;28;20058;-59
2022/11/12 02:20:16;;;;;;;3.13;1.60;;;;;;;9.73;100.00;102059.44;5053976;28;20032;-61
2022/11/12 02:22:41;;;;;;;3.03;2.03;;;;;;;9.84;100.00;102058.41;5058400;28;20076;-62
2022/11/12 02:25:12;;;;;;;3.80;1.70;;;;;;;9.93;100.00;102061.97;5055310;28;20150;-59
2022/11/12 02:27:38;;;;;;;4.22;0.80;;;;;;;10.01;100.00;102064.69;5054868;28;20059;-59
2022/11/12 02:30:03;;;;;;;3.25;1.65;;;;;;;10.06;100.00;102062.44;5053414;28;20482;-63
2022/11/12 02:32:29;;;;;;;3.35;1.35;;;;;;;10.08;100.00;102059.66;5057880;28;20528;-62
2022/11/12 02:34:54;;;;;;;4.13;1.83;;;;;;;10.12;100.00;102059.22;5055562;28;20169;-61
2022/11/12 02:37:19;;;;;;;2.80;2.45;;;;;;;10.13;100.00;102052.91;5054282;28;20040;-61
2022/11/12 02:39:45;;;;;;;3.00;1.50;;;;;;;10.16;100.00;102052.59;5057746;28;20032;-62
2022/11/12 02:42:10;;;;;;;18.98;2.78;;;;;;;10.17;100.00;102049.00;5055188;28;20039;-61
2022/11/12 02:44:35;;;;;;;1.30;1.17;;;;;;;10.18;100.00;102041.88;5053990;28;20040;-61
2022/11/12 02:47:01;;;;;;;2.15;1.08;;;;;;;10.18;100.00;102041.88;5055958;28;20109;-61
2022/11/12 02:49:26;;;;;;;2.35;1.33;;;;;;;10.18;100.00;102037.41;5044953;28;20028;-62
2022/11/12 02:51:51;;;;;;;4.32;2.47;;;;;;;10.19;100.00;102030.28;5058832;28;21025;-61
2022/11/12 02:54:17;;;;;;;7.43;1.90;;;;;;;10.18;100.00;102029.44;5058311;28;20047;-58
2022/11/12 02:56:42;;;;;;;6.93;3.17;;;;;;;10.19;100.00;102036.41;5056392;28;20106;-62
2022/11/12 02:59:07;;;;;;;2.03;1.45;;;;;;;10.18;100.00;102032.09;5041791;28;20505;-62
2022/11/12 03:01:33;;;;;;;3.53;1.33;;;;;;;10.20;100.00;102026.66;5057651;28;20522;-61
2022/11/12 03:03:59;;;;;;;9.15;2.08;;;;;;;10.22;100.00;102030.81;5052693;28;20037;-62
2022/11/12 03:06:24;;;;;;;5.65;2.10;;;;;;;10.25;100.00;102029.69;5046776;28;20024;-63
2022/11/12 03:08:50;;;;;;;2.47;1.17;;;;;;;10.28;100.00;102032.06;5054930;28;20028;-62
2022/11/12 03:11:16;;;;;;;1.27;1.17;;;;;;;10.30;100.00;102026.59;5053760;28;20040;-60
2022/11/12 03:13:42;;;;;;;3.80;2.30;;;;;;;10.30;100.00;102026.59;5056946;28;20040;-60
2022/11/12 03:16:08;;;;;;;5.60;2.00;;;;;;;10.32;100.00;102029.94;5056555;28;20032;-63
2022/11/12 03:18:33;;;;;;;2.47;1.33;;;;;;;10.31;100.00;102029.09;5056336;28;20103;-61
2022/11/12 03:20:58;;;;;;;3.35;1.60;;;;;;;10.32;100.00;102029.94;5057316;28;20033;-61
2022/11/12 03:23:25;;;;;;;3.22;1.10;;;;;;;10.33;100.00;102015.72;5057134;28;20028;-61
2022/11/12 03:25:50;;;;;;;1.80;1.35;;;;;;;10.35;100.00;102016.38;5054540;28;20029;-62
2022/11/12 03:28:16;;;;;;;3.15;1.40;;;;;;;10.33;100.00;102010.41;5061655;28;20178;-63
2022/11/12 03:30:42;;;;;;;2.17;1.80;;;;;;;10.28;100.00;102016.16;5058774;28;20028;-62
2022/11/12 03:33:10;;;;;;;5.45;2.30;;;;;;;10.29;100.00;102007.22;5054673;28;20028;-61
2022/11/12 03:35:36;;;;;;;3.13;1.70;;;;;;;10.26;100.00;102004.84;5057711;28;20070;-63
2022/11/12 03:38:03;;;;;;;6.82;1.75;;;;;;;10.23;100.00;101999.84;5054809;28;20029;-59
2022/11/12 03:40:30;;;;;;;2.53;1.65;;;;;;;10.18;100.00;102000.28;5057512;28;20051;-62
2022/11/12 03:42:56;;;;;;;4.70;2.58;;;;;;;10.08;100.00;101996.88;5053855;28;20371;-61
2022/11/12 03:45:23;;;;;;;2.55;2.13;;;;;;;10.10;100.00;101994.91;5059913;28;20147;-61
2022/11/12 03:47:51;;;;;;;3.95;2.33;;;;;;;10.08;100.00;102004.81;5060900;28;20154;-62
2022/11/12 03:50:19;;;;;;;4.47;1.45;;;;;;;10.12;100.00;101992.09;5034589;28;20028;-62
2022/11/12 03:52:45;;;;;;;3.58;1.90;;;;;;;10.13;100.00;101988.47;5058790;28;20036;-62
2022/11/12 03:55:12;;;;;;;4.47;2.38;;;;;;;10.08;100.00;101988.91;5059466;28;20028;-62
2022/11/12 03:57:37;;;;;;;4.55;1.75;;;;;;;9.98;100.00;101990.81;5055217;28;20041;-61
2022/11/12 04:00:05;;;;;;;2.70;1.35;;;;;;;9.96;100.00;101988.28;5052049;28;20036;-60
2022/11/12 04:02:30;;;;;;;4.88;1.80;;;;;;;9.94;100.00;101990.28;5052353;28;20639;-62
2022/11/12 04:10:24;;;;;;;3.90;1.77;;;;;;;9.95;100.00;101986.63;5061335;28;20119;-63
2022/11/12 04:15:33;;;;;;;3.20;1.63;;;;;;;10.01;100.00;101979.91;5062199;28;20124;-62
2022/11/12 04:23:26;;;;;;;5.13;3.83;;;;;;;9.71;100.00;101991.69;5057731;28;20070;-61
2022/11/12 04:28:36;;;;;;;7.97;2.47;;;;;;;9.51;100.00;101986.50;5053281;28;20056;-60
2022/11/12 04:31:01;;;;;;;5.50;2.05;;;;;;;9.51;100.00;101993.59;5053958;28;20028;-62
2022/11/12 04:33:26;;;;;;;7.38;3.13;;;;;;;9.56;100.00;101991.34;5054750;28;20103;-63
2022/11/12 04:35:52;;;;;;;3.53;2.05;;;;;;;9.59;100.00;101981.28;5057262;28;20024;-60
2022/11/12 04:38:17;;;;;;;5.72;3.17;;;;;;;9.59;100.00;101994.53;5054624;28;20083;-58
2022/11/12 04:46:10;;;;;;;3.60;2.08;;;;;;;9.65;100.00;101997.56;5058531;28;20078;-62
2022/11/12 04:48:35;;;;;;;3.95;1.92;;;;;;;9.71;100.00;102003.13;5057723;28;20029;-62
2022/11/12 04:52:03;;;;;;;4.75;2.58;;;;;;;9.68;100.00;102003.41;5058177;28;20016;-61
2022/11/12 04:53:48;;;;;;;4.25;2.30;;;;;;;9.64;100.00;102004.69;5055549;28;20423;-61
2022/11/12 04:56:14;;;;;;;2.72;2.05;;;;;;;9.69;100.00;102010.38;5060632;28;20086;-62
2022/11/12 04:58:39;;;;;;;4.28;3.40;;;;;;;9.72;100.00;102009.25;5055170;28;20059;-62
2022/11/12 05:01:04;;;;;;;5.60;3.38;;;;;;;9.76;100.00;102014.09;5064856;28;20064;-62
2022/11/12 05:03:30;;;;;;;12.43;6.55;;;;;;;9.81;100.00;102016.31;5055348;28;20068;-60
2022/11/12 05:06:03;;;;;;;12.18;5.78;;;;;;;9.90;100.00;102011.94;5056421;28;20033;-62
2022/11/12 05:08:28;;;;;;;10.88;4.40;;;;;;;9.92;100.00;102013.44;5063557;28;20494;-60
2022/11/12 05:10:54;;;;;;;6.43;4.50;;;;;;;9.96;100.00;102011.31;5056676;28;20120;-62
2022/11/12 05:13:19;;;;;;;5.28;4.50;;;;;;;9.97;100.00;102013.00;5057392;28;20063;-62
2022/11/12 05:15:44;;;;;;;6.28;4.07;;;;;;;9.97;100.00;102010.34;5058205;28;20052;-62
2022/11/12 05:18:10;;;;;;;5.15;4.05;;;;;;;9.99;100.00;102011.88;5057035;28;20036;-57
2022/11/12 05:20:35;;;;;;;3.63;3.22;;;;;;;10.00;100.00;102018.81;5055690;28;20051;-63
2022/11/12 05:23:00;;;;;;;5.43;3.63;;;;;;;10.03;100.00;102015.03;5039065;28;20046;-61
2022/11/12 05:25:26;;;;;;;7.15;3.25;;;;;;;10.04;100.00;102011.41;5062102;28;20083;-62
2022/11/12 05:27:51;;;;;;;2.70;2.15;;;;;;;10.09;100.00;102013.59;5059447;28;20036;-61
2022/11/12 05:30:17;;;;;;;5.43;2.90;;;;;;;10.11;100.00;102023.06;5051180;28;20029;-63
2022/11/12 05:32:42;;;;;;;5.13;3.05;;;;;;;10.13;100.00;102013.16;5045409;28;20020;-63
2022/11/12 05:35:07;;;;;;;5.90;3.30;;;;;;;10.16;100.00;102019.97;5059391;28;20094;-60
2022/11/12 05:37:33;;;;;;;4.00;3.13;;;;;;;10.16;100.00;102022.63;5056287;28;20094;-61
2022/11/12 05:39:58;;;;;;;6.20;2.70;;;;;;;10.18;100.00;102028.63;5058139;28;20028;-63
2022/11/12 05:42:23;;;;;;;4.18;2.45;;;;;;;10.20;100.00;102031.97;5040952;28;20122;-63
2022/11/12 05:44:49;;;;;;;3.65;2.67;;;;;;;10.23;100.00;102037.78;5058523;28;20025;-61
2022/11/12 05:47:15;;;;;;;14.30;4.28;;;;;;;10.25;100.00;102029.69;5057478;28;20040;-63
2022/11/12 05:49:40;;;;;;;7.00;3.30;;;;;;;10.29;100.00;102038.19;5051841;28;20043;-61
2022/11/12 05:52:06;;;;;;;5.13;2.42;;;;;;;10.31;100.00;102036.22;5057904;28;20020;-63
2022/11/12 05:54:31;;;;;;;9.27;3.13;;;;;;;10.32;100.00;102033.41;5059226;28;21081;-63
2022/11/12 05:56:56;;;;;;;11.57;2.50;;;;;;;10.34;100.00;102031.44;5056886;28;20028;-62
2022/11/12 05:59:22;;;;;;;18.85;2.83;;;;;;;10.33;100.00;102029.78;5058838;28;20116;-62
2022/11/12 06:01:47;;;;;;;10.57;4.60;;;;;;;10.34;100.00;102035.91;5032447;28;20024;-61
2022/11/12 06:04:14;;;;;;;4.28;2.65;;;;;;;10.37;100.00;102019.69;5055867;28;20028;-62
2022/11/12 06:06:41;;;;;;;2.65;2.45;;;;;;;10.37;100.00;102022.34;5050507;28;20029;-62
2022/11/12 06:09:07;;;;;;;3.13;2.85;;;;;;;10.36;100.00;102026.00;5039726;28;20119;-62
2022/11/12 06:11:33;;;;;;;5.97;3.15;;;;;;;10.36;100.00;102026.84;5051980;28;20042;-61
2022/11/12 06:14:00;;;;;;;10.15;3.45;;;;;;;10.38;100.00;102026.69;5054565;28;20033;-62
2022/11/12 06:16:26;;;;;;;7.93;2.67;;;;;;;10.37;100.00;102032.97;5062063;28;20108;-62
2022/11/12 06:18:51;;;;;;;3.45;3.15;;;;;;;10.36;100.00;102033.97;5052255;28;20033;-62
2022/11/12 06:21:21;;;;;;;5.50;3.03;;;;;;;10.35;100.00;102032.28;5050720;28;20029;-61
2022/11/12 06:23:49;;;;;;;5.57;3.25;;;;;;;10.36;100.00;102032.13;5058117;28;20028;-62
2022/11/12 06:26:14;;;;;;;2.72;2.53;;;;;;;10.35;100.00;102029.63;5038034;28;20483;-60
2022/11/12 06:28:40;;;;;;;5.82;3.13;;;;;;;10.35;100.00;102035.78;5040794;28;20051;-62
2022/11/12 06:31:05;;;;;;;6.32;2.78;;;;;;;10.34;100.00;102026.13;5053030;28;20021;-60
2022/11/12 06:33:31;;;;;;;7.57;3.50;;;;;;;10.35;100.00;102021.66;5052275;28;21622;-61
2022/11/12 06:36:01;;;;;;;8.25;4.88;;;;;;;10.37;100.00;102028.47;5057038;28;20037;-62
2022/11/12 06:38:31;;;;;;;7.50;2.55;;;;;;;10.39;100.00;102028.34;5051694;28;20039;-63
2022/11/12 06:40:56;;;;;;;4.00;2.60;;;;;;;10.37;100.00;102023.19;5061220;28;20068;-62
2022/11/12 06:43:23;;;;;;;5.00;2.83;;;;;;;10.40;100.00;102028.22;5054449;28;20056;-61
2022/11/12 06:45:48;;;;;;;8.30;3.25;;;;;;;10.40;100.00;102022.91;5050353;28;20029;-59
2022/11/12 06:48:13;;;;;;;5.95;3.33;;;;;;;10.41;100.00;102029.03;5061632;28;20036;-62
2022/11/12 06:50:39;;;;;;;7.55;3.17;;;;;;;10.42;100.00;102031.50;5050424;28;20048;-56
2022/11/12 06:53:04;;;;;;;4.53;3.10;;;;;;;10.41;100.00;102031.69;5054294;28;20032;-59
2022/11/12 06:55:29;;;;;;;6.18;2.65;;;;;;;10.41;100.00;102027.22;5057015;28;20051;-62
2022/11/12 06:57:55;;;;;;;5.95;2.67;;;;;;;10.42;100.00;102033.34;5058638;28;20470;-61
2022/11/12 07:00:20;;;;;;;3.03;2.30;;;;;;;10.42;100.00;102036.81;5062721;28;20035;-62
2022/11/12 07:02:46;;;;;;;3.88;1.88;;;;;;;10.43;100.00;102035.03;5057259;28;20603;-62
2022/11/12 07:05:11;;;;;;;3.42;2.92;;;;;;;10.43;100.00;102035.03;5060914;28;20025;-62
2022/11/12 07:07:36;;;;;;;6.50;2.80;;;;;;;10.44;100.00;102040.16;5059857;28;20052;-62
2022/11/12 07:10:02;;;;;;;11.13;3.72;;;;;;;10.45;100.00;102033.88;5053554;28;20080;-62
2022/11/12 07:12:27;;;;;;;4.82;3.08;;;;;;;10.47;100.00;102036.38;5054581;28;20028;-62
2022/11/12 07:14:53;;;;;;;5.38;2.17;;;;;;;10.48;100.00;102030.94;5060216;28;20480;-61
2022/11/12 07:17:18;;;;;;;4.15;3.05;;;;;;;10.49;100.00;102029.09;5062193;28;20051;-62
2022/11/12 07:19:43;;;;;;;3.30;2.55;;;;;;;10.49;100.00;102039.72;5051526;28;20393;-58
2022/11/12 07:22:09;;;;;;;8.45;3.17;;;;;;;10.51;100.00;102048.34;5036790;28;20033;-61
2022/11/12 07:24:34;;;;;;;5.18;2.80;;;;;;;10.53;100.00;102048.19;5066883;28;20029;-62
2022/11/12 07:26:59;;;;;;;3.47;2.63;;;;;;;10.54;100.00;102061.31;5021220;28;20027;-62
2022/11/12 07:29:25;;;;;;;5.93;2.63;;;;;;;10.56;100.00;102059.34;5056356;28;20096;-60
2022/11/12 07:31:51;;;;;;;4.00;2.47;;;;;;;10.57;100.00;102053.03;5062919;28;20060;-63
2022/11/12 07:34:16;;;;;;;8.50;2.85;;;;;;;10.58;100.00;102054.69;5057115;28;20025;-62
2022/11/12 07:36:41;;;;;;;6.55;2.30;;;;;;;10.60;100.00;102050.06;5054555;28;20032;-61
2022/11/12 07:39:07;;;;;;;2.17;1.98;;;;;;;10.60;100.00;102049.25;5054219;28;20035;-58
2022/11/12 07:41:32;;;;;;;7.13;2.38;;;;;;;10.62;100.00;102053.41;5040990;28;20029;-61
2022/11/12 07:43:57;;;;;;;2.95;2.58;;;;;;;10.64;100.00;102056.75;5051388;28;20025;-61
2022/11/12 07:46:25;;;;;;;6.20;2.33;;;;;;;10.68;100.00;102071.34;5054889;28;20029;-61
2022/11/12 07:48:51;;;;;;;6.00;2.22;;;;;;;10.67;100.00;102075.00;5053200;28;20064;-61
2022/11/12 07:51:18;;;;;;;3.78;2.97;;;;;;;10.67;100.00;102082.97;5052453;28;20038;-63
2022/11/12 07:53:45;;;;;;;5.85;2.42;;;;;;;10.69;100.00;102086.31;5056735;28;20033;-61
2022/11/12 07:56:13;;;;;;;4.60;2.47;;;;;;;10.73;100.00;102083.34;5054218;28;20036;-61
2022/11/12 07:58:39;;;;;;;5.30;3.00;;;;;;;10.74;100.00;102087.66;5055355;28;20546;-61
2022/11/12 08:01:30;;;;;;;2.85;2.60;;;;;;;10.80;100.00;102081.75;5063230;28;20058;-63
2022/11/12 08:03:56;;;;;;;3.05;2.20;;;;;;;10.79;100.00;102083.56;5054291;28;20024;-60
2022/11/12 08:06:22;;;;;;;4.13;1.92;;;;;;;10.81;100.00;102083.41;5051482;28;20427;-59
2022/11/12 08:08:51;;;;;;;5.10;2.38;;;;;;;10.86;100.00;102079.28;5049925;28;20068;-59
2022/11/12 08:11:16;;;;;;;2.80;2.47;;;;;;;10.85;100.00;102072.34;5043427;28;20105;-62
2022/11/12 08:13:41;;;;;;;2.60;1.88;;;;;;;10.88;100.00;102068.53;5047090;28;20025;-60
2022/11/12 08:16:07;;;;;;;4.30;2.05;;;;;;;10.88;100.00;102074.69;5055657;28;20052;-63
2022/11/12 08:18:33;;;;;;;3.70;2.00;;;;;;;10.89;100.00;102076.34;5054667;28;20044;-61
2022/11/12 08:21:04;;;;;;;3.78;3.20;;;;;;;10.95;100.00;102077.56;5038086;28;20478;-64
2022/11/12 08:23:29;;;;;;;6.00;3.00;;;;;;;10.95;100.00;102082.88;5058949;28;20439;-60
2022/11/12 08:26:03;;;;;;;2.53;2.13;;;;;;;10.98;100.00;102081.72;5054947;28;20488;-61
2022/11/12 08:28:29;;;;;;;2.70;2.55;;;;;;;10.99;100.00;102092.16;5057723;28;20071;-60
2022/11/12 08:30:55;;;;;;;7.13;2.97;;;;;;;11.02;100.00;102088.38;5062853;28;20040;-61
2022/11/12 08:33:21;;;;;;;3.15;2.03;;;;;;;11.05;100.00;102102.19;5061686;28;20090;-61
2022/11/12 08:35:47;;;;;;;2.80;2.03;;;;;;;11.09;100.00;102106.19;5042754;28;20108;-57
2022/11/12 08:38:13;;;;;;;5.45;2.67;;;;;;;11.11;100.00;102098.91;5067177;28;20120;-61
2022/11/12 08:40:38;;;;;;;4.60;2.05;;;;;;;11.14;100.00;102103.91;5065949;28;20477;-62
2022/11/12 08:43:09;;;;;;;6.05;2.28;;;;;;;11.20;100.00;102098.97;5063635;28;20393;-60
2022/11/12 08:45:37;;;;;;;2.40;2.10;;;;;;;11.22;100.00;102095.16;5060052;28;20031;-62
2022/11/12 08:48:05;;;;;;;3.50;2.55;;;;;;;11.26;100.00;102093.88;5058694;28;20109;-57
2022/11/12 08:50:31;;;;;;;2.72;2.33;;;;;;;11.28;100.00;102099.00;5067070;28;20374;-62
2022/11/12 08:53:01;;;;;;;5.03;2.55;;;;;;;11.32;100.00;102087.91;5059546;28;20029;-60
2022/11/12 08:55:28;;;;;;;4.75;2.58;;;;;;;11.35;100.00;102100.06;5069096;28;20125;-58
2022/11/12 08:57:54;;;;;;;3.25;2.60;;;;;;;11.37;100.00;102105.22;5061857;28;20052;-62
2022/11/12 09:00:19;;;;;;;3.45;1.67;;;;;;;11.37;100.00;102108.69;5059759;28;20147;-62
2022/11/12 09:02:45;;;;;;;4.60;2.88;;;;;;;11.39;100.00;102113.88;5067867;28;20509;-60
2022/11/12 09:05:10;;;;;;;2.40;2.20;;;;;;;11.38;100.00;102115.66;5070688;28;20039;-62
2022/11/12 09:07:35;;;;;;;2.60;2.30;;;;;;;11.42;100.00;102122.34;5060710;28;20032;-61
2022/11/12 09:10:01;;;;;;;5.22;3.22;;;;;;;11.44;100.00;102117.72;5060287;28;20040;-63
2022/11/12 09:12:26;;;;;;;5.13;2.92;;;;;;;11.47;100.00;102116.56;5061805;28;20094;-62
2022/11/12 09:14:52;;;;;;;2.55;2.28;;;;;;;11.51;100.00;102117.91;5071804;28;20470;-62
2022/11/12 09:17:17;;;;;;;10.00;3.75;;;;;;;11.54;100.00;102125.59;5065655;28;20024;-61
2022/11/12 09:19:42;;;;;;;3.65;3.03;;;;;;;11.55;100.00;102112.13;5070583;28;20032;-61
2022/11/12 09:22:08;;;;;;;5.63;3.22;;;;;;;11.60;100.00;102121.47;5057826;28;20047;-61
2022/11/12 09:24:33;;;;;;;2.88;2.60;;;;;;;11.65;100.00;102109.38;5063270;28;20372;-62
2022/11/12 09:26:59;;;;;;;13.55;3.20;;;;;;;11.68;100.00;102110.88;5062121;28;20471;-61
2022/11/12 09:29:24;;;;;;;4.90;2.92;;;;;;;11.70;100.00;102115.03;5064098;28;20052;-61
2022/11/12 09:31:50;;;;;;;6.05;3.28;;;;;;;11.75;100.00;102109.25;5057877;28;20119;-61
2022/11/12 09:34:15;;;;;;;3.75;2.38;;;;;;;11.75;100.00;102111.91;5055136;28;20490;-59
2022/11/12 09:36:41;;;;;;;6.18;2.78;;;;;;;11.74;100.00;102112.88;5049781;28;20040;-62
2022/11/12 09:39:06;;;;;;;5.60;2.92;;;;;;;11.72;100.00;102104.22;5054277;28;20020;-60
2022/11/12 09:41:37;;;;;;;6.78;3.05;;;;;;;11.77;100.00;102094.81;5054248;28;20040;-62
2022/11/12 09:44:05;;;;;;;;;;;;;;;11.79;100.00;102094.63;5053727;28;20024;-62
2022/11/12 09:46:46;;;;;;;4.82;3.35;;;;;;;11.82;100.00;102099.63;5048374;28;19924;-62
2022/11/12 09:49:22;;;;;;;9.52;3.40;;;;;;;11.84;100.00;102097.66;5049774;28;20489;-63
2022/11/12 09:51:55;;;;;;;3.88;2.83;;;;;;;11.88;100.00;102087.59;5058431;28;20474;-63
2022/11/12 09:54:29;;;;;;;7.50;3.75;;;;;;;11.92;100.00;102094.22;5060334;28;20070;-63
2022/11/12 09:56:55;;;;;;;4.40;3.75;;;;;;;11.90;100.00;102086.44;5064743;28;20056;-63
2022/11/12 09:59:22;;;;;;;7.82;3.53;;;;;;;11.88;100.00;102093.72;5056272;28;20048;-63
2022/11/12 10:02:03;;;;;;;6.03;3.25;;;;;;;11.87;100.00;102085.91;5057534;28;20028;-60
2022/11/12 10:04:28;;;;;;;5.47;3.70;;;;;;;11.85;100.00;102085.19;5057322;28;20033;-61
2022/11/12 10:07:04;;;;;;;7.45;3.97;;;;;;;11.90;100.00;102081.13;5057728;28;20072;-63
2022/11/12 10:09:44;;;;;;;8.98;4.18;;;;;;;11.92;100.00;102081.75;5055230;28;20032;-62
2022/11/12 10:12:33;;;;;;;7.82;4.18;;;;;;;11.98;100.00;102081.13;5065157;28;20033;-63
2022/11/12 10:18:41;;;;;;;;;;;;;;;12.15;100.00;102076.69;5062179;28;20170;-63
2022/11/12 10:21:45;;;;;;;8.93;3.55;;;;;;;12.31;100.00;102078.53;5049772;28;19916;-61
2022/11/12 10:24:10;;;;;;;6.97;4.38;;;;;;;12.44;100.00;102065.63;5053826;28;20044;-63
2022/11/12 10:26:37;;;;;;;12.10;5.38;;;;;;;12.55;100.00;102053.81;5050031;28;20083;-62
2022/11/12 10:29:30;;;;;;;11.10;4.78;;;;;;;12.62;100.00;102045.97;5058440;28;20055;-61
2022/11/12 10:31:56;;;;;;;13.27;5.55;;;;;;;12.66;100.00;102048.16;5050313;28;20025;-63
2022/11/12 10:34:23;;;;;;;5.75;5.00;;;;;;;12.71;100.00;102052.97;5055846;28;20524;-61
2022/11/12 10:37:04;;;;;;;6.13;5.47;;;;;;;12.77;100.00;102056.81;5053088;28;20035;-62
2022/11/12 10:39:34;;;;;;;;;;;;;;;12.78;100.00;102051.31;5049848;28;20040;-61
2022/11/12 10:42:15;;;;;;;7.65;5.90;;;;;;;12.81;100.00;102052.81;5054620;28;20015;-62
2022/11/12 10:44:42;;;;;;;7.32;5.03;;;;;;;12.79;100.00;102036.19;5058536;28;21731;-63
2022/11/12 10:47:22;;;;;;;10.52;5.25;;;;;;;12.86;100.00;102027.34;5064106;28;20023;-61
2022/11/12 10:50:19;;;;;;;10.90;5.03;;;;;;;12.95;100.00;102030.00;5055837;28;20066;-63
2022/11/12 10:53:03;;;;;;;9.32;4.38;;;;;;;13.04;100.00;102021.00;5060391;28;20988;-60
2022/11/12 10:55:34;;;;;;;7.97;5.30;;;;;;;13.08;100.00;102025.81;5068789;28;20060;-63
2022/11/12 10:58:06;;;;;;;;;;;;;;;13.07;100.00;102018.81;5067582;28;20470;-61
2022/11/12 11:00:32;;;;;;;7.60;4.57;;;;;;;13.13;100.00;102017.31;5048192;28;19974;-61
2022/11/12 11:02:59;;;;;;;12.02;5.25;;;;;;;13.17;100.00;102015.16;5059946;28;20024;-62
2022/11/12 11:05:58;;;;;;;7.57;4.63;;;;;;;13.21;100.00;102011.97;5057815;28;20474;-64
2022/11/12 11:08:32;;;;;;;13.55;5.35;;;;;;;13.22;100.00;101995.00;5057083;28;20317;-62
2022/11/12 11:11:15;;;;;;;10.25;5.05;;;;;;;13.20;100.00;101990.84;5062846;28;20024;-61
2022/11/12 11:13:41;;;;;;;9.52;5.53;;;;;;;13.19;100.00;101992.69;5064710;28;20035;-61
2022/11/12 11:16:11;;;;;;;6.72;5.32;;;;;;;13.26;100.00;101992.81;5062209;28;20509;-63
2022/11/12 11:18:40;;;;;;;5.97;4.38;;;;;;;13.28;100.00;101985.50;5055240;28;20036;-63
2022/11/12 11:21:30;;;;;;;10.80;5.35;;;;;;;13.33;100.00;101977.00;5052818;28;20036;-62
2022/11/12 11:24:01;;;;;;;9.13;5.25;;;;;;;13.41;100.00;101976.97;5055053;28;20116;-63
2022/11/12 11:26:55;;;;;;;8.80;3.78;;;;;;;13.40;100.00;101977.97;5058654;28;20032;-64
2022/11/12 11:30:29;;;;;;;8.93;5.20;;;;;;;13.42;100.00;101975.97;5058203;28;20063;-63
2022/11/12 11:33:12;;;;;;;8.13;4.13;;;;;;;13.44;100.00;101976.63;4941101;28;20125;-63
2022/11/12 11:35:46;;;;;;;11.02;5.72;;;;;;;13.50;100.00;101973.25;5044768;28;20084;-62
2022/11/12 11:38:24;;;;;;;6.90;3.85;;;;;;;13.55;100.00;101978.06;5058369;28;20064;-63
2022/11/12 11:41:06;;;;;;;6.55;4.68;;;;;;;13.52;100.00;101965.91;5048614;28;20108;-64
2022/11/12 11:43:53;;;;;;;8.23;4.75;;;;;;;13.44;100.00;101963.28;5037696;28;20056;-61
2022/11/12 11:46:37;;;;;;;11.30;5.88;;;;;;;13.44;100.00;101960.63;5057650;28;20409;-62
2022/11/12 11:49:14;;;;;;;10.25;5.28;;;;;;;13.47;100.00;101963.78;5055101;28;20040;-63
2022/11/12 11:51:47;;;;;;;7.72;5.75;;;;;;;13.50;100.00;101959.94;5053457;28;20036;-63
2022/11/12 11:54:41;;;;;;;7.43;5.22;;;;;;;13.43;100.00;101959.81;5057112;28;20340;-62